createdAt,value
2018-02-11T00:00:45.939Z,4.47
2018-02-11T00:03:12.109Z,5.27
2018-02-11T00:05:38.271Z,4.80
2018-02-11T00:08:04.900Z,3.93
2018-02-11T00:10:31.362Z,4.40
2018-02-11T00:12:57.518Z,5.60
2018-02-11T00:15:24.083Z,4.10
2018-02-11T00:17:50.504Z,4.20
2018-02-11T00:20:16.670Z,4.07
2018-02-11T00:22:42.898Z,4.57
2018-02-11T00:25:09.047Z,4.50
2018-02-11T00:27:35.198Z,4.67
2018-02-11T00:30:01.704Z,4.30
2018-02-11T00:32:27.892Z,4.27
2018-02-11T00:34:54.072Z,4.50
2018-02-11T00:37:26.647Z,4.70
2018-02-11T00:39:52.811Z,4.63
2018-02-11T00:42:18.971Z,5.17
2018-02-11T00:44:45.194Z,4.57
2018-02-11T00:47:11.639Z,4.00
2018-02-11T00:49:37.803Z,4.33
2018-02-11T00:52:04.015Z,4.70
2018-02-11T00:54:30.175Z,4.40
2018-02-11T00:56:56.656Z,4.23
2018-02-11T00:59:22.859Z,4.50
2018-02-11T01:01:49.020Z,4.47
2018-02-11T01:04:15.443Z,4.60
2018-02-11T01:06:41.664Z,4.40
2018-02-11T01:09:07.874Z,4.23
2018-02-11T01:11:34.339Z,5.67
2018-02-11T01:14:00.537Z,4.70
2018-02-11T01:16:26.687Z,4.57
2018-02-11T01:18:52.879Z,4.63
2018-02-11T01:21:19.114Z,4.63
2018-02-11T01:23:45.275Z,5.10
2018-02-11T01:26:11.415Z,4.27
2018-02-11T01:28:37.630Z,4.97
2018-02-11T01:31:03.811Z,5.40
2018-02-11T01:33:29.986Z,4.87
2018-02-11T01:35:56.203Z,5.17
2018-02-11T01:38:22.387Z,4.67
2018-02-11T01:40:48.566Z,4.70
2018-02-11T01:43:14.772Z,4.90
2018-02-11T01:45:40.950Z,4.60
2018-02-11T01:48:07.116Z,4.43
2018-02-11T01:50:33.575Z,4.97
2018-02-11T01:52:59.747Z,3.80
2018-02-11T01:55:26.277Z,4.53
2018-02-11T01:57:52.430Z,4.33
2018-02-11T02:00:18.641Z,4.87
2018-02-11T02:02:45.184Z,4.67
2018-02-11T02:05:11.363Z,5.00
2018-02-11T02:07:37.524Z,4.30
2018-02-11T02:10:03.720Z,5.07
2018-02-11T02:12:29.863Z,5.43
2018-02-11T02:14:56.034Z,5.13
2018-02-11T02:17:22.212Z,5.13
2018-02-11T02:19:48.722Z,4.80
2018-02-11T02:22:14.931Z,5.07
2018-02-11T02:24:41.386Z,4.77
2018-02-11T02:27:07.562Z,4.57
2018-02-11T02:29:34.045Z,4.40
2018-02-11T02:32:00.211Z,5.40
2018-02-11T02:34:26.402Z,4.73
2018-02-11T02:36:52.613Z,5.00
2018-02-11T02:39:18.769Z,4.33
2018-02-11T02:41:44.973Z,4.67
2018-02-11T02:44:11.484Z,4.23
2018-02-11T02:46:37.640Z,4.30
2018-02-11T02:49:03.820Z,4.77
2018-02-11T02:51:30.340Z,5.07
2018-02-11T02:53:56.500Z,4.17
2018-02-11T02:56:22.652Z,4.17
2018-02-11T02:58:48.878Z,4.27
2018-02-11T03:01:15.056Z,4.00
2018-02-11T03:03:41.230Z,5.00
2018-02-11T03:06:07.422Z,4.70
2018-02-11T03:08:33.593Z,5.00
2018-02-11T03:11:00.435Z,4.60
2018-02-11T03:13:26.603Z,3.83
2018-02-11T03:15:52.779Z,4.53
2018-02-11T03:18:18.985Z,4.43
2018-02-11T03:20:45.123Z,3.93
2018-02-11T03:23:11.715Z,4.77
2018-02-11T03:25:37.869Z,4.97
2018-02-11T03:28:04.045Z,3.93
2018-02-11T03:30:30.604Z,3.73
2018-02-11T03:32:56.779Z,4.30
2018-02-11T03:35:22.933Z,4.40
2018-02-11T03:37:49.461Z,4.60
2018-02-11T03:40:15.612Z,4.27
2018-02-11T03:42:42.017Z,4.40
2018-02-11T03:45:08.276Z,4.30
2018-02-11T03:47:34.423Z,4.67
2018-02-11T03:50:00.593Z,3.83
2018-02-11T03:52:26.808Z,4.97
2018-02-11T03:54:52.974Z,4.27
2018-02-11T03:57:19.160Z,3.90
2018-02-11T03:59:45.775Z,4.03
2018-02-11T04:02:11.962Z,4.00
2018-02-11T04:04:38.139Z,3.53
2018-02-11T04:07:04.603Z,4.07
2018-02-11T04:09:30.766Z,3.60
2018-02-11T04:11:57.266Z,3.90
2018-02-11T04:14:23.860Z,5.33
2018-02-11T04:16:50.046Z,4.17
2018-02-11T04:19:16.254Z,3.70
2018-02-11T04:21:42.463Z,4.53
2018-02-11T04:24:08.635Z,4.00
2018-02-11T04:26:34.785Z,4.13
2018-02-11T04:29:01.291Z,4.90
2018-02-11T04:31:27.432Z,3.60
2018-02-11T04:33:53.600Z,4.00
2018-02-11T04:36:19.828Z,4.37
2018-02-11T04:38:45.984Z,4.73
2018-02-11T04:41:12.172Z,4.90
2018-02-11T04:43:38.352Z,3.80
2018-02-11T04:46:04.555Z,3.83
2018-02-11T04:48:30.994Z,4.00
2018-02-11T04:50:57.430Z,3.77
2018-02-11T04:53:23.640Z,4.53
2018-02-11T04:55:49.800Z,4.60
2018-02-11T04:58:15.948Z,3.60
2018-02-11T05:00:42.175Z,4.50
2018-02-11T05:03:08.323Z,4.07
2018-02-11T05:05:34.489Z,4.40
2018-02-11T05:08:01.025Z,3.60
2018-02-11T05:10:27.172Z,4.10
2018-02-11T05:12:53.320Z,3.80
2018-02-11T05:15:19.581Z,3.60
2018-02-11T05:17:46.058Z,4.20
2018-02-11T05:20:12.226Z,4.10
2018-02-11T05:22:38.703Z,3.67
2018-02-11T05:25:04.870Z,4.10
2018-02-11T05:27:31.399Z,3.70
2018-02-11T05:29:57.556Z,3.10
2018-02-11T05:32:23.712Z,3.80
2018-02-11T05:34:50.254Z,3.70
2018-02-11T05:37:16.402Z,3.97
2018-02-11T05:39:42.616Z,3.80
2018-02-11T05:42:08.794Z,3.73
2018-02-11T05:44:35.024Z,3.80
2018-02-11T05:47:01.235Z,3.10
2018-02-11T05:49:27.383Z,3.80
2018-02-11T05:51:53.542Z,3.50
2018-02-11T05:54:19.769Z,3.40
2018-02-11T05:56:45.955Z,3.77
2018-02-11T05:59:12.141Z,3.40
2018-02-11T06:01:38.406Z,3.37
2018-02-11T06:04:04.882Z,3.70
2018-02-11T06:06:31.029Z,2.77
2018-02-11T06:08:57.550Z,3.40
2018-02-11T06:11:23.724Z,3.47
2018-02-11T06:13:50.209Z,3.53
2018-02-11T06:16:16.434Z,2.87
2018-02-11T06:18:42.685Z,3.37
2018-02-11T06:21:08.864Z,3.40
2018-02-11T06:23:35.098Z,3.27
2018-02-11T06:26:01.276Z,3.03
2018-02-11T06:28:27.446Z,3.17
2018-02-11T06:30:53.672Z,2.73
2018-02-11T06:33:19.826Z,2.70
2018-02-11T06:35:45.981Z,3.60
2018-02-11T06:38:12.794Z,3.07
2018-02-11T06:40:38.953Z,3.10
2018-02-11T06:43:05.115Z,3.37
2018-02-11T06:45:31.624Z,3.27
2018-02-11T06:47:57.773Z,3.07
2018-02-11T06:50:24.247Z,3.20
2018-02-11T06:52:50.454Z,3.43
2018-02-11T06:55:16.660Z,3.67
2018-02-11T06:57:49.017Z,2.90
2018-02-11T07:00:15.174Z,2.97
2018-02-11T07:02:41.401Z,3.30
2018-02-11T07:05:07.573Z,2.90
2018-02-11T07:07:33.743Z,3.37
2018-02-11T07:10:00.352Z,2.90
2018-02-11T07:12:26.499Z,3.30
2018-02-11T07:14:52.672Z,2.80
2018-02-11T07:17:19.206Z,3.10
2018-02-11T07:19:45.741Z,2.60
2018-02-11T07:22:11.959Z,3.17
2018-02-11T07:24:38.146Z,2.80
2018-02-11T07:27:04.332Z,2.83
2018-02-11T07:29:30.897Z,2.87
2018-02-11T07:31:57.066Z,2.83
2018-02-11T07:34:23.264Z,2.40
2018-02-11T07:36:49.502Z,2.47
2018-02-11T07:39:15.698Z,2.67
2018-02-11T07:41:42.208Z,2.43
2018-02-11T07:44:08.738Z,2.60
2018-02-11T07:46:34.895Z,2.70
2018-02-11T07:49:01.068Z,2.30
2018-02-11T07:51:27.691Z,2.83
2018-02-11T07:53:53.861Z,2.80
2018-02-11T07:56:20.294Z,2.57
2018-02-11T07:58:46.526Z,2.57
2018-02-11T08:01:12.952Z,2.30
2018-02-11T08:03:39.395Z,2.30
2018-02-11T08:06:05.587Z,2.30
2018-02-11T08:08:31.783Z,2.00
2018-02-11T08:10:58.049Z,2.43
2018-02-11T08:13:24.223Z,2.30
2018-02-11T08:15:50.394Z,2.00
2018-02-11T08:18:16.611Z,2.53
2018-02-11T08:20:44.095Z,2.13
2018-02-11T08:23:10.484Z,2.10
2018-02-11T08:25:37.077Z,2.00
2018-02-11T08:28:03.512Z,2.20
2018-02-11T08:30:29.674Z,2.73
2018-02-11T08:32:55.905Z,2.30
2018-02-11T08:35:22.061Z,2.30
2018-02-11T08:37:48.243Z,2.23
2018-02-11T08:40:14.443Z,2.77
2018-02-11T08:42:40.880Z,2.23
2018-02-11T08:45:07.450Z,2.10
2018-02-11T08:47:33.621Z,2.63
2018-02-11T08:49:59.791Z,2.10
2018-02-11T08:52:26.327Z,2.17
2018-02-11T08:54:52.493Z,2.17
2018-02-11T08:57:18.657Z,2.37
2018-02-11T08:59:44.839Z,2.40
2018-02-11T09:02:11.005Z,2.37
2018-02-11T09:04:37.282Z,1.80
2018-02-11T09:07:03.452Z,2.70
2018-02-11T09:09:29.614Z,1.83
2018-02-11T09:11:55.823Z,2.33
2018-02-11T09:14:22.002Z,2.07
2018-02-11T09:16:48.161Z,2.20
2018-02-11T09:19:14.713Z,2.50
2018-02-11T09:21:40.984Z,2.10
2018-02-11T09:24:07.166Z,1.80
2018-02-11T09:26:33.739Z,2.10
2018-02-11T09:29:00.238Z,2.13
2018-02-11T09:31:26.418Z,1.80
2018-02-11T09:33:52.609Z,2.20
2018-02-11T09:36:18.823Z,1.60
2018-02-11T09:38:44.983Z,1.80
2018-02-11T09:41:11.480Z,1.93
2018-02-11T09:43:38.331Z,2.00
2018-02-11T09:46:04.491Z,2.10
2018-02-11T09:48:30.913Z,2.00
2018-02-11T09:50:57.478Z,1.60
2018-02-11T09:53:23.953Z,2.20
2018-02-11T09:55:50.122Z,1.70
2018-02-11T09:58:16.777Z,2.00
2018-02-11T10:00:42.940Z,1.87
2018-02-11T10:03:09.123Z,1.57
2018-02-11T10:05:35.299Z,1.93
2018-02-11T10:08:01.451Z,1.80
2018-02-11T10:10:27.655Z,1.80
2018-02-11T10:12:53.805Z,1.77
2018-02-11T10:15:20.959Z,1.80
2018-02-11T10:17:47.211Z,2.17
2018-02-11T10:20:13.391Z,2.30
2018-02-11T10:22:39.571Z,1.90
2018-02-11T10:25:06.182Z,1.87
2018-02-11T10:27:32.355Z,2.00
2018-02-11T10:29:58.614Z,1.80
2018-02-11T10:32:24.850Z,1.73
2018-02-11T10:34:51.022Z,1.83
2018-02-11T10:37:17.499Z,1.97
2018-02-11T10:39:44.336Z,1.90
2018-02-11T10:42:10.771Z,2.07
2018-02-11T10:44:36.931Z,1.60
2018-02-11T10:47:04.032Z,1.70
2018-02-11T10:49:30.197Z,1.90
2018-02-11T10:51:56.702Z,1.87
2018-02-11T10:54:22.887Z,1.47
2018-02-11T10:56:49.078Z,1.73
2018-02-11T10:59:15.288Z,2.03
2018-02-11T11:01:41.458Z,1.40
2018-02-11T11:04:07.643Z,1.57
2018-02-11T11:06:33.821Z,1.70
2018-02-11T11:08:59.981Z,1.60
2018-02-11T11:11:26.526Z,1.93
2018-02-11T11:13:52.698Z,1.83
2018-02-11T11:16:18.856Z,1.73
2018-02-11T11:18:45.042Z,1.70
2018-02-11T11:21:11.216Z,1.87
2018-02-11T11:23:37.479Z,1.90
2018-02-11T11:26:03.663Z,1.50
2018-02-11T11:28:29.833Z,1.77
2018-02-11T11:30:56.065Z,1.80
2018-02-11T11:33:22.231Z,1.90
2018-02-11T11:35:48.380Z,1.80
2018-02-11T11:38:14.602Z,1.97
2018-02-11T11:40:40.814Z,1.70
2018-02-11T11:43:06.963Z,1.50
2018-02-11T11:45:33.173Z,1.70
2018-02-11T11:47:59.339Z,1.87
2018-02-11T11:50:25.525Z,1.43
2018-02-11T11:52:52.101Z,1.70
2018-02-11T11:55:18.536Z,1.70
2018-02-11T11:57:44.691Z,1.53
2018-02-11T12:00:10.893Z,1.63
2018-02-11T12:02:37.052Z,1.70
2018-02-11T12:05:03.224Z,1.73
2018-02-11T12:07:29.400Z,1.73
2018-02-11T12:09:55.564Z,1.73
2018-02-11T12:12:21.794Z,1.43
2018-02-11T12:14:47.956Z,1.60
2018-02-11T12:17:14.122Z,1.60
2018-02-11T12:19:40.356Z,1.60
2018-02-11T12:22:06.607Z,1.37
2018-02-11T12:24:32.815Z,1.57
2018-02-11T12:26:59.359Z,1.60
2018-02-11T12:29:25.508Z,1.60
2018-02-11T12:31:51.673Z,1.83
2018-02-11T12:34:17.887Z,1.87
2018-02-11T12:36:44.051Z,1.63
2018-02-11T12:39:10.552Z,2.03
2018-02-11T12:41:36.705Z,3.07
2018-02-11T12:44:02.856Z,1.80
2018-02-11T12:46:29.734Z,1.87
2018-02-11T12:48:55.881Z,2.13
2018-02-11T12:51:22.041Z,1.70
2018-02-11T12:53:48.564Z,2.00
2018-02-11T12:56:15.058Z,1.40
2018-02-11T12:58:41.247Z,1.80
2018-02-11T13:01:07.721Z,1.30
2018-02-11T13:03:34.255Z,1.57
2018-02-11T13:06:00.434Z,1.50
2018-02-11T13:08:26.928Z,1.70
2018-02-11T13:10:53.148Z,1.83
2018-02-11T13:13:19.322Z,1.70
2018-02-11T13:15:45.583Z,1.70
2018-02-11T13:18:11.751Z,1.70
2018-02-11T13:20:37.953Z,1.73
2018-02-11T13:23:04.244Z,1.60
2018-02-11T13:25:30.423Z,1.40
2018-02-11T13:27:56.591Z,1.47
2018-02-11T13:30:22.910Z,1.80
2018-02-11T13:32:49.041Z,1.70
2018-02-11T13:35:15.190Z,1.60
2018-02-11T13:37:41.409Z,1.70
2018-02-11T13:40:07.570Z,1.50
2018-02-11T13:42:33.780Z,1.50
2018-02-11T13:44:59.946Z,1.43
2018-02-11T13:47:26.110Z,1.70
2018-02-11T13:49:52.308Z,1.73
2018-02-11T13:52:18.464Z,1.60
2018-02-11T13:54:44.938Z,1.53
2018-02-11T13:57:11.184Z,1.47
2018-02-11T13:59:37.713Z,1.60
2018-02-11T14:02:03.856Z,1.70
2018-02-11T14:04:30.079Z,1.60
2018-02-11T14:06:56.258Z,1.40
2018-02-11T14:09:22.729Z,1.90
2018-02-11T14:11:49.255Z,2.10
2018-02-11T14:14:15.827Z,1.40
2018-02-11T14:16:41.994Z,1.70
2018-02-11T14:19:08.451Z,1.73
2018-02-11T14:21:34.780Z,1.80
2018-02-11T14:24:00.936Z,1.77
2018-02-11T14:26:27.176Z,1.63
2018-02-11T14:28:53.394Z,1.70
2018-02-11T14:31:19.649Z,1.80
2018-02-11T14:33:45.835Z,1.70
2018-02-11T14:36:12.067Z,1.60
2018-02-11T14:38:38.219Z,1.70
2018-02-11T14:41:04.393Z,1.90
2018-02-11T14:43:30.619Z,1.80
2018-02-11T14:45:56.767Z,1.70
2018-02-11T14:48:22.933Z,1.50
2018-02-11T14:50:49.164Z,1.90
2018-02-11T14:53:15.329Z,1.80
2018-02-11T14:55:41.482Z,1.87
2018-02-11T14:58:07.722Z,1.90
2018-02-11T15:00:33.872Z,2.00
2018-02-11T15:03:00.040Z,1.90
2018-02-11T15:05:26.276Z,2.53
2018-02-11T15:07:58.643Z,1.77
2018-02-11T15:10:25.086Z,2.03
2018-02-11T15:12:51.658Z,2.10
2018-02-11T15:15:18.149Z,1.97
2018-02-11T15:17:44.690Z,1.63
2018-02-11T15:20:10.911Z,1.90
2018-02-11T15:22:37.065Z,1.60
2018-02-11T15:25:03.577Z,2.17
2018-02-11T15:27:30.170Z,2.40
2018-02-11T15:29:56.342Z,1.80
2018-02-11T15:32:22.520Z,1.60
2018-02-11T15:34:49.019Z,2.30
2018-02-11T15:37:15.540Z,2.40
2018-02-11T15:39:41.803Z,1.80
2018-02-11T15:42:08.013Z,3.10
2018-02-11T15:44:34.182Z,2.20
2018-02-11T15:47:00.654Z,2.67
2018-02-11T15:49:26.832Z,2.17
2018-02-11T15:51:53.016Z,1.67
2018-02-11T15:54:19.602Z,2.20
2018-02-11T15:56:45.761Z,2.30
2018-02-11T15:59:11.925Z,2.10
2018-02-11T16:01:38.735Z,2.20
2018-02-11T16:04:04.893Z,2.03
2018-02-11T16:06:31.067Z,1.70
2018-02-11T16:08:57.625Z,2.40
2018-02-11T16:11:23.780Z,2.10
2018-02-11T16:13:49.954Z,2.47
2018-02-11T16:16:16.159Z,1.73
2018-02-11T16:18:42.312Z,2.27
2018-02-11T16:21:08.532Z,1.80
2018-02-11T16:23:34.998Z,2.23
2018-02-11T16:26:01.206Z,2.00
2018-02-11T16:28:27.767Z,1.70
2018-02-11T16:30:53.933Z,2.23
2018-02-11T16:33:20.114Z,1.90
2018-02-11T16:35:46.336Z,2.00
2018-02-11T16:38:12.482Z,2.10
2018-02-11T16:40:38.650Z,2.53
2018-02-11T16:43:05.127Z,2.20
2018-02-11T16:45:31.295Z,2.50
2018-02-11T16:47:57.457Z,2.03
2018-02-11T16:50:23.681Z,2.23
2018-02-11T16:52:49.834Z,2.63
2018-02-11T16:55:15.989Z,1.83
2018-02-11T16:57:42.186Z,1.70
2018-02-11T17:00:08.659Z,1.63
2018-02-11T17:02:34.875Z,2.03
2018-02-11T17:05:01.087Z,2.33
2018-02-11T17:07:27.253Z,2.73
2018-02-11T17:09:53.490Z,2.17
2018-02-11T17:12:19.663Z,2.80
2018-02-11T17:14:45.885Z,2.33
2018-02-11T17:17:12.096Z,2.80
2018-02-11T17:19:38.260Z,1.70
2018-02-11T17:22:04.675Z,2.10
2018-02-11T17:24:30.895Z,2.30
2018-02-11T17:26:57.338Z,2.13
2018-02-11T17:29:23.544Z,2.30
2018-02-11T17:31:49.791Z,1.60
2018-02-11T17:34:16.009Z,2.30
2018-02-11T17:36:42.456Z,2.80
2018-02-11T17:39:08.678Z,2.43
2018-02-11T17:41:34.917Z,2.50
2018-02-11T17:44:01.068Z,3.07
2018-02-11T17:46:27.287Z,2.50
2018-02-11T17:48:53.806Z,2.67
2018-02-11T17:51:20.038Z,2.43
2018-02-11T17:53:46.191Z,2.40
2018-02-11T17:56:12.348Z,3.13
2018-02-11T17:58:38.559Z,2.40
2018-02-11T18:01:04.740Z,2.20
2018-02-11T18:03:30.919Z,2.50
2018-02-11T18:05:57.500Z,2.20
2018-02-11T18:08:23.669Z,2.53
2018-02-11T18:10:50.158Z,2.60
2018-02-11T18:13:17.004Z,2.37
2018-02-11T18:15:43.438Z,2.67
2018-02-11T18:18:09.583Z,2.60
2018-02-11T18:20:36.092Z,2.73
2018-02-11T18:23:02.268Z,2.47
2018-02-11T18:25:28.445Z,2.30
2018-02-11T18:27:55.418Z,3.13
2018-02-11T18:30:21.604Z,3.10
2018-02-11T18:32:47.776Z,2.40
2018-02-11T18:35:14.003Z,2.50
2018-02-11T18:37:40.175Z,2.97
2018-02-11T18:40:06.387Z,2.23
2018-02-11T18:42:32.989Z,2.30
2018-02-11T18:44:59.402Z,2.60
2018-02-11T18:47:25.939Z,2.23
2018-02-11T18:49:52.539Z,2.90
2018-02-11T18:52:18.679Z,2.80
2018-02-11T18:54:44.839Z,2.20
2018-02-11T18:57:11.050Z,2.40
2018-02-11T18:59:37.220Z,2.77
2018-02-11T19:02:03.392Z,2.23
2018-02-11T19:04:29.634Z,2.53
2018-02-11T19:06:55.782Z,2.43
2018-02-11T19:09:21.955Z,3.47
2018-02-11T19:11:48.557Z,2.40
2018-02-11T19:14:14.730Z,3.07
2018-02-11T19:16:40.906Z,2.10
2018-02-11T19:19:07.139Z,2.90
2018-02-11T19:21:33.311Z,2.30
2018-02-11T19:23:59.471Z,2.73
2018-02-11T19:26:25.999Z,2.30
2018-02-11T19:28:52.171Z,2.23
2018-02-11T19:31:18.660Z,2.60
2018-02-11T19:33:44.808Z,2.40
2018-02-11T19:36:10.970Z,2.50
2018-02-11T19:38:37.186Z,2.93
2018-02-11T19:41:03.370Z,2.40
2018-02-11T19:43:29.531Z,2.37
2018-02-11T19:45:55.749Z,2.00
2018-02-11T19:48:21.927Z,2.80
2018-02-11T19:50:48.086Z,2.57
2018-02-11T19:53:14.554Z,2.90
2018-02-11T19:55:47.562Z,2.80
2018-02-11T19:58:13.795Z,2.70
2018-02-11T20:00:40.256Z,2.30
2018-02-11T20:03:06.406Z,2.37
2018-02-11T20:05:32.603Z,2.03
2018-02-11T20:07:58.760Z,2.30
2018-02-11T20:10:24.978Z,2.20
2018-02-11T20:12:51.179Z,2.63
2018-02-11T20:15:17.356Z,2.93
2018-02-11T20:17:43.856Z,2.30
2018-02-11T20:20:10.012Z,2.63
2018-02-11T20:22:36.266Z,2.73
2018-02-11T20:25:02.457Z,2.20
2018-02-11T20:27:28.970Z,2.80
2018-02-11T20:29:55.178Z,2.53
2018-02-11T20:32:21.409Z,2.33
2018-02-11T20:34:47.593Z,3.00
2018-02-11T20:37:13.806Z,2.63
2018-02-11T20:39:40.318Z,2.57
2018-02-11T20:42:06.472Z,2.43
2018-02-11T20:44:32.982Z,2.90
2018-02-11T20:46:59.135Z,2.70
2018-02-11T20:49:25.287Z,2.50
2018-02-11T20:51:51.484Z,2.40
2018-02-11T20:54:17.662Z,2.77
2018-02-11T20:56:43.822Z,3.57
2018-02-11T20:59:10.367Z,2.27
2018-02-11T21:01:36.527Z,2.47
2018-02-11T21:04:03.010Z,2.70
2018-02-11T21:06:29.616Z,2.70
2018-02-11T21:08:55.771Z,3.33
2018-02-11T21:11:21.920Z,2.80
2018-02-11T21:13:48.146Z,2.50
2018-02-11T21:16:14.328Z,2.50
2018-02-11T21:18:40.500Z,2.83
2018-02-11T21:21:06.694Z,2.50
2018-02-11T21:23:33.144Z,2.03
2018-02-11T21:25:59.635Z,3.00
2018-02-11T21:28:25.817Z,2.80
2018-02-11T21:30:51.977Z,3.67
2018-02-11T21:33:18.631Z,2.77
2018-02-11T21:35:44.775Z,2.37
2018-02-11T21:38:10.924Z,2.40
2018-02-11T21:40:37.190Z,2.67
2018-02-11T21:43:03.337Z,2.60
2018-02-11T21:45:29.507Z,2.73
2018-02-11T21:47:55.715Z,2.47
2018-02-11T21:50:21.863Z,2.30
2018-02-11T21:52:48.294Z,2.67
2018-02-11T21:55:21.514Z,3.03
2018-02-11T21:57:47.688Z,2.77
2018-02-11T22:00:14.155Z,2.80
2018-02-11T22:02:40.330Z,2.57
2018-02-11T22:05:06.514Z,3.43
2018-02-11T22:07:32.722Z,2.53
2018-02-11T22:09:58.888Z,2.70
2018-02-11T22:12:25.062Z,2.60
2018-02-11T22:14:51.296Z,2.90
2018-02-11T22:17:17.439Z,2.40
2018-02-11T22:19:43.675Z,3.13
2018-02-11T22:22:10.501Z,2.53
2018-02-11T22:24:36.651Z,2.40
2018-02-11T22:27:02.857Z,2.90
2018-02-11T22:29:29.435Z,2.67
2018-02-11T22:31:55.579Z,2.23
2018-02-11T22:34:21.755Z,2.60
2018-02-11T22:36:48.286Z,2.20
2018-02-11T22:39:14.459Z,2.13
2018-02-11T22:41:40.945Z,2.50
2018-02-11T22:44:07.156Z,2.53
2018-02-11T22:46:33.304Z,2.33
2018-02-11T22:48:59.452Z,2.27
2018-02-11T22:51:25.640Z,2.10
2018-02-11T22:53:51.798Z,2.23
2018-02-11T22:56:17.964Z,2.67
2018-02-11T22:58:44.206Z,3.00
2018-02-11T23:01:10.366Z,2.50
2018-02-11T23:03:36.796Z,1.73
2018-02-11T23:06:03.325Z,2.10
2018-02-11T23:08:29.535Z,2.90
2018-02-11T23:10:55.708Z,2.20
2018-02-11T23:13:21.879Z,2.30
2018-02-11T23:15:48.057Z,2.53
2018-02-11T23:18:14.199Z,2.23
2018-02-11T23:20:40.387Z,2.27
2018-02-11T23:23:06.545Z,2.30
2018-02-11T23:25:32.771Z,2.47
2018-02-11T23:27:58.963Z,2.10
2018-02-11T23:30:25.184Z,2.60
2018-02-11T23:32:51.771Z,2.90
2018-02-11T23:35:17.939Z,2.07
2018-02-11T23:37:44.124Z,2.60
2018-02-11T23:40:10.791Z,2.70
2018-02-11T23:42:36.949Z,2.07
2018-02-11T23:45:03.202Z,2.00
2018-02-11T23:47:29.428Z,1.73
2018-02-11T23:49:55.604Z,3.00
2018-02-11T23:52:21.746Z,2.30
2018-02-11T23:54:48.345Z,2.80
2018-02-11T23:57:14.503Z,2.10
2018-02-11T23:59:40.642Z,2.30
